sensor_id;sensor_type;location;lat;lon;timestamp;pressure;altitude;pressure_sealevel;temperature;humidity
7335;BME280;3708;42.632;23.378;2022-09-09T00:01:13;94552.22;;;22.64;51.63
7335;BME280;3708;42.632;23.378;2022-09-09T00:03:47;94552.94;;;22.75;51.41
7335;BME280;3708;42.632;23.378;2022-09-09T00:06:21;94549.88;;;22.81;51.26
7335;BME280;3708;42.632;23.378;2022-09-09T00:08:56;94546.50;;;22.69;51.58
7335;BME280;3708;42.632;23.378;2022-09-09T00:11:33;94548.38;;;22.76;51.33
7335;BME280;3708;42.632;23.378;2022-09-09T00:14:10;94543.47;;;22.64;51.67
7335;BME280;3708;42.632;23.378;2022-09-09T00:16:42;94556.84;;;22.43;52.30
7335;BME280;3708;42.632;23.378;2022-09-09T00:19:16;94558.00;;;22.35;52.42
7335;BME280;3708;42.632;23.378;2022-09-09T00:21:55;94549.22;;;22.45;52.21
7335;BME280;3708;42.632;23.378;2022-09-09T00:24:30;94545.78;;;22.41;51.82
7335;BME280;3708;42.632;23.378;2022-09-09T00:27:05;94529.03;;;22.40;51.72
7335;BME280;3708;42.632;23.378;2022-09-09T00:29:35;94532.84;;;22.36;51.73
7335;BME280;3708;42.632;23.378;2022-09-09T00:32:12;94530.19;;;22.22;51.86
7335;BME280;3708;42.632;23.378;2022-09-09T00:34:47;94526.44;;;22.12;51.96
7335;BME280;3708;42.632;23.378;2022-09-09T00:37:15;94531.34;;;22.17;51.89
7335;BME280;3708;42.632;23.378;2022-09-09T00:39:43;94526.44;;;22.02;51.95
7335;BME280;3708;42.632;23.378;2022-09-09T00:42:16;94529.47;;;22.07;51.99
7335;BME280;3708;42.632;23.378;2022-09-09T00:44:53;94518.03;;;22.07;51.92
7335;BME280;3708;42.632;23.378;2022-09-09T00:47:40;94506.25;;;22.00;52.21
7335;BME280;3708;42.632;23.378;2022-09-09T00:50:30;94503.19;;;22.02;52.02
7335;BME280;3708;42.632;23.378;2022-09-09T00:53:08;94507.41;;;21.85;52.31
7335;BME280;3708;42.632;23.378;2022-09-09T00:55:42;94505.09;;;21.80;52.42
7335;BME280;3708;42.632;23.378;2022-09-09T00:58:12;94510.06;;;21.82;52.26
7335;BME280;3708;42.632;23.378;2022-09-09T01:00:43;94511.25;;;21.84;52.08
7335;BME280;3708;42.632;23.378;2022-09-09T01:03:19;94507.38;;;21.78;52.12
7335;BME280;3708;42.632;23.378;2022-09-09T01:05:57;94512.34;;;21.73;52.28
7335;BME280;3708;42.632;23.378;2022-09-09T01:08:43;94503.19;;;21.74;52.32
7335;BME280;3708;42.632;23.378;2022-09-09T01:11:20;94508.16;;;21.61;52.70
7335;BME280;3708;42.632;23.378;2022-09-09T01:13:53;94511.19;;;21.63;52.69
7335;BME280;3708;42.632;23.378;2022-09-09T01:16:24;94505.50;;;21.65;52.66
7335;BME280;3708;42.632;23.378;2022-09-09T01:18:54;94515.03;;;21.69;52.42
7335;BME280;3708;42.632;23.378;2022-09-09T01:21:31;94511.97;;;21.46;53.18
7335;BME280;3708;42.632;23.378;2022-09-09T01:24:19;94515.03;;;21.52;53.22
7335;BME280;3708;42.632;23.378;2022-09-09T01:26:51;94512.72;;;21.40;53.50
7335;BME280;3708;42.632;23.378;2022-09-09T01:29:20;94511.56;;;21.26;53.77
7335;BME280;3708;42.632;23.378;2022-09-09T01:31:54;94505.09;;;21.31;53.76
7335;BME280;3708;42.632;23.378;2022-09-09T01:34:22;94502.84;;;21.26;53.63
7335;BME280;3708;42.632;23.378;2022-09-09T01:36:55;94500.53;;;21.32;53.47
7335;BME280;3708;42.632;23.378;2022-09-09T01:39:24;94515.75;;;21.17;53.58
7335;BME280;3708;42.632;23.378;2022-09-09T01:41:53;94518.81;;;21.19;53.29
7335;BME280;3708;42.632;23.378;2022-09-09T01:44:20;94524.50;;;21.10;53.69
7335;BME280;3708;42.632;23.378;2022-09-09T01:46:48;94524.09;;;21.05;53.90
7335;BME280;3708;42.632;23.378;2022-09-09T01:49:16;94528.66;;;21.08;53.89
7335;BME280;3708;42.632;23.378;2022-09-09T01:51:46;94527.53;;;21.05;53.89
7335;BME280;3708;42.632;23.378;2022-09-09T01:54:15;94528.31;;;21.13;53.72
7335;BME280;3708;42.632;23.378;2022-09-09T01:56:48;94522.53;;;20.97;53.87
7335;BME280;3708;42.632;23.378;2022-09-09T01:59:33;94533.22;;;21.07;53.69
7335;BME280;3708;42.632;23.378;2022-09-09T02:02:09;94533.25;;;21.18;53.74
7335;BME280;3708;42.632;23.378;2022-09-09T02:04:39;94519.56;;;21.34;53.16
7335;BME280;3708;42.632;23.378;2022-09-09T02:07:15;94533.31;;;21.39;52.97
7335;BME280;3708;42.632;23.378;2022-09-09T02:09:52;94519.19;;;21.42;52.76
7335;BME280;3708;42.632;23.378;2022-09-09T02:12:25;94521.88;;;21.42;52.91
7335;BME280;3708;42.632;23.378;2022-09-09T02:15:00;94529.47;;;21.44;52.86
7335;BME280;3708;42.632;23.378;2022-09-09T02:17:31;94521.13;;;21.35;53.18
7335;BME280;3708;42.632;23.378;2022-09-09T02:20:04;94521.88;;;21.49;53.18
7335;BME280;3708;42.632;23.378;2022-09-09T02:22:34;94514.25;;;21.58;52.92
7335;BME280;3708;42.632;23.378;2022-09-09T02:25:04;94503.59;;;21.65;52.62
7335;BME280;3708;42.632;23.378;2022-09-09T02:27:32;94495.97;;;21.67;52.58
7335;BME280;3708;42.632;23.378;2022-09-09T02:30:01;94502.06;;;21.64;52.47
7335;BME280;3708;42.632;23.378;2022-09-09T02:32:31;94511.59;;;21.48;52.82
7335;BME280;3708;42.632;23.378;2022-09-09T02:35:05;94508.16;;;21.51;52.46
7335;BME280;3708;42.632;23.378;2022-09-09T02:37:36;94502.84;;;21.37;52.76
7335;BME280;3708;42.632;23.378;2022-09-09T02:40:05;94513.06;;;21.03;53.67
7335;BME280;3708;42.632;23.378;2022-09-09T02:42:32;94517.66;;;21.23;53.35
7335;BME280;3708;42.632;23.378;2022-09-09T02:45:07;94511.59;;;21.34;53.35
7335;BME280;3708;42.632;23.378;2022-09-09T02:47:35;94510.06;;;21.36;53.22
7335;BME280;3708;42.632;23.378;2022-09-09T02:50:10;94526.81;;;21.30;53.38
7335;BME280;3708;42.632;23.378;2022-09-09T02:52:45;94537.47;;;21.33;53.36
7335;BME280;3708;42.632;23.378;2022-09-09T02:55:18;94539.19;;;20.73;55.31
7335;BME280;3708;42.632;23.378;2022-09-09T02:57:47;94520.22;;;20.92;54.65
7335;BME280;3708;42.632;23.378;2022-09-09T03:00:22;94523.72;;;21.10;54.61
7335;BME280;3708;42.632;23.378;2022-09-09T03:02:49;94519.53;;;21.05;55.02
7335;BME280;3708;42.632;23.378;2022-09-09T03:05:16;94525.91;;;20.80;55.91
7335;BME280;3708;42.632;23.378;2022-09-09T03:07:43;94528.44;;;20.48;57.02
7335;BME280;3708;42.632;23.378;2022-09-09T03:10:10;94536.41;;;20.41;57.57
7335;BME280;3708;42.632;23.378;2022-09-09T03:12:37;94534.34;;;20.17;57.98
7335;BME280;3708;42.632;23.378;2022-09-09T03:15:05;94528.91;;;19.99;58.83
7335;BME280;3708;42.632;23.378;2022-09-09T03:17:33;94537.97;;;19.91;59.02
7335;BME280;3708;42.632;23.378;2022-09-09T03:20:01;94539.25;;;19.60;60.25
7335;BME280;3708;42.632;23.378;2022-09-09T03:22:28;94536.34;;;19.76;60.03
7335;BME280;3708;42.632;23.378;2022-09-09T03:24:55;94531.09;;;19.87;59.76
7335;BME280;3708;42.632;23.378;2022-09-09T03:27:22;94535.25;;;19.84;59.55
7335;BME280;3708;42.632;23.378;2022-09-09T03:29:49;94529.47;;;18.87;62.26
7335;BME280;3708;42.632;23.378;2022-09-09T03:32:17;94528.03;;;18.60;63.28
7335;BME280;3708;42.632;23.378;2022-09-09T03:34:45;94525.56;;;18.78;63.25
7335;BME280;3708;42.632;23.378;2022-09-09T03:37:15;94538.06;;;19.11;62.08
7335;BME280;3708;42.632;23.378;2022-09-09T03:39:43;94536.22;;;19.58;61.05
7335;BME280;3708;42.632;23.378;2022-09-09T03:42:12;94531.81;;;19.80;60.29
7335;BME280;3708;42.632;23.378;2022-09-09T03:44:44;94527.44;;;20.05;59.54
7335;BME280;3708;42.632;23.378;2022-09-09T03:47:13;94539.38;;;20.29;58.85
7335;BME280;3708;42.632;23.378;2022-09-09T03:49:40;94529.56;;;20.47;58.15
7335;BME280;3708;42.632;23.378;2022-09-09T03:52:09;94536.09;;;20.57;57.63
7335;BME280;3708;42.632;23.378;2022-09-09T03:54:36;94531.19;;;20.66;57.24
7335;BME280;3708;42.632;23.378;2022-09-09T03:57:04;94530.47;;;20.76;56.63
7335;BME280;3708;42.632;23.378;2022-09-09T03:59:31;94532.38;;;20.86;56.09
7335;BME280;3708;42.632;23.378;2022-09-09T04:01:58;94520.25;;;20.95;55.80
7335;BME280;3708;42.632;23.378;2022-09-09T04:04:25;94531.69;;;21.03;55.87
7335;BME280;3708;42.632;23.378;2022-09-09T04:06:52;94540.47;;;21.14;55.50
7335;BME280;3708;42.632;23.378;2022-09-09T04:09:21;94541.25;;;21.25;55.42
7335;BME280;3708;42.632;23.378;2022-09-09T04:11:48;94536.69;;;21.29;55.36
7335;BME280;3708;42.632;23.378;2022-09-09T04:14:16;94545.06;;;21.42;55.09
7335;BME280;3708;42.632;23.378;2022-09-09T04:16:42;94543.84;;;21.00;55.99
7335;BME280;3708;42.632;23.378;2022-09-09T04:19:10;94539.72;;;21.17;55.86
7335;BME280;3708;42.632;23.378;2022-09-09T04:21:38;94530.22;;;21.23;55.62
7335;BME280;3708;42.632;23.378;2022-09-09T04:24:06;94520.34;;;21.34;55.30
7335;BME280;3708;42.632;23.378;2022-09-09T04:26:35;94528.72;;;21.40;55.20
7335;BME280;3708;42.632;23.378;2022-09-09T04:29:03;94534.06;;;21.43;54.95
7335;BME280;3708;42.632;23.378;2022-09-09T04:31:30;94534.41;;;21.42;54.92
7335;BME280;3708;42.632;23.378;2022-09-09T04:33:57;94540.13;;;21.40;54.75
7335;BME280;3708;42.632;23.378;2022-09-09T04:36:27;94539.41;;;21.54;54.47
7335;BME280;3708;42.632;23.378;2022-09-09T04:38:54;94536.34;;;21.55;54.19
7335;BME280;3708;42.632;23.378;2022-09-09T04:41:21;94535.97;;;21.60;53.70
7335;BME280;3708;42.632;23.378;2022-09-09T04:43:49;94542.81;;;21.51;53.34
7335;BME280;3708;42.632;23.378;2022-09-09T04:46:18;94551.19;;;21.46;53.61
7335;BME280;3708;42.632;23.378;2022-09-09T04:48:45;94552.34;;;21.52;53.55
7335;BME280;3708;42.632;23.378;2022-09-09T04:51:13;94553.84;;;21.53;53.03
7335;BME280;3708;42.632;23.378;2022-09-09T04:53:40;94536.72;;;21.54;52.80
7335;BME280;3708;42.632;23.378;2022-09-09T04:56:09;94528.72;;;21.54;53.05
7335;BME280;3708;42.632;23.378;2022-09-09T04:58:40;94529.50;;;21.54;52.61
7335;BME280;3708;42.632;23.378;2022-09-09T05:01:11;94526.44;;;21.38;53.17
7335;BME280;3708;42.632;23.378;2022-09-09T05:03:38;94519.19;;;21.42;53.07
7335;BME280;3708;42.632;23.378;2022-09-09T05:06:06;94518.03;;;21.18;53.58
7335;BME280;3708;42.632;23.378;2022-09-09T05:08:35;94523.72;;;21.06;53.69
7335;BME280;3708;42.632;23.378;2022-09-09T05:11:02;94514.97;;;21.09;53.73
7335;BME280;3708;42.632;23.378;2022-09-09T05:13:29;94510.44;;;21.35;53.06
7335;BME280;3708;42.632;23.378;2022-09-09T05:15:57;94511.97;;;21.21;53.19
7335;BME280;3708;42.632;23.378;2022-09-09T05:18:26;94513.88;;;21.42;53.04
7335;BME280;3708;42.632;23.378;2022-09-09T05:20:58;94523.41;;;21.61;52.84
7335;BME280;3708;42.632;23.378;2022-09-09T05:23:25;94526.06;;;21.71;52.21
7335;BME280;3708;42.632;23.378;2022-09-09T05:25:56;94511.63;;;21.86;51.93
7335;BME280;3708;42.632;23.378;2022-09-09T05:28:24;94507.78;;;21.87;51.77
7335;BME280;3708;42.632;23.378;2022-09-09T05:30:58;94508.50;;;22.16;51.37
7335;BME280;3708;42.632;23.378;2022-09-09T05:33:27;94497.81;;;22.20;50.96
7335;BME280;3708;42.632;23.378;2022-09-09T05:35:58;94509.66;;;22.12;51.01
7335;BME280;3708;42.632;23.378;2022-09-09T05:38:25;94507.41;;;21.89;51.04
7335;BME280;3708;42.632;23.378;2022-09-09T05:40:52;94505.09;;;22.12;50.91
7335;BME280;3708;42.632;23.378;2022-09-09T05:43:19;94500.75;;;22.50;50.30
7335;BME280;3708;42.632;23.378;2022-09-09T05:45:47;94511.41;;;22.67;49.57
7335;BME280;3708;42.632;23.378;2022-09-09T05:48:14;94514.66;;;23.03;49.06
7335;BME280;3708;42.632;23.378;2022-09-09T05:50:43;94516.44;;;23.24;47.89
7335;BME280;3708;42.632;23.378;2022-09-09T05:53:10;94519.03;;;23.41;47.45
7335;BME280;3708;42.632;23.378;2022-09-09T05:55:37;94523.03;;;23.64;46.93
7335;BME280;3708;42.632;23.378;2022-09-09T05:58:04;94517.53;;;23.85;46.07
7335;BME280;3708;42.632;23.378;2022-09-09T06:00:31;94517.38;;;24.06;45.54
7335;BME280;3708;42.632;23.378;2022-09-09T06:02:58;94526.06;;;24.13;44.75
7335;BME280;3708;42.632;23.378;2022-09-09T06:05:25;94525.03;;;24.00;44.43
7335;BME280;3708;42.632;23.378;2022-09-09T06:07:55;94534.50;;;23.68;44.74
7335;BME280;3708;42.632;23.378;2022-09-09T06:10:22;94536.50;;;23.57;45.33
7335;BME280;3708;42.632;23.378;2022-09-09T06:12:52;94542.81;;;23.22;45.96
7335;BME280;3708;42.632;23.378;2022-09-09T06:15:20;94541.16;;;23.42;46.07
7335;BME280;3708;42.632;23.378;2022-09-09T06:17:47;94544.50;;;23.57;45.63
7335;BME280;3708;42.632;23.378;2022-09-09T06:20:20;94536.81;;;23.66;45.30
7335;BME280;3708;42.632;23.378;2022-09-09T06:22:48;94534.69;;;23.91;44.79
7335;BME280;3708;42.632;23.378;2022-09-09T06:25:16;94536.00;;;24.16;44.77
7335;BME280;3708;42.632;23.378;2022-09-09T06:27:48;94534.50;;;24.49;44.11
7335;BME280;3708;42.632;23.378;2022-09-09T06:30:15;94538.63;;;24.57;43.77
7335;BME280;3708;42.632;23.378;2022-09-09T06:32:43;94536.88;;;24.74;43.50
7335;BME280;3708;42.632;23.378;2022-09-09T06:35:10;94539.38;;;24.91;43.10
7335;BME280;3708;42.632;23.378;2022-09-09T06:37:38;94530.72;;;24.80;42.79
7335;BME280;3708;42.632;23.378;2022-09-09T06:40:06;94528.69;;;24.54;43.70
7335;BME280;3708;42.632;23.378;2022-09-09T06:42:34;94523.44;;;24.81;43.89
7335;BME280;3708;42.632;23.378;2022-09-09T06:45:01;94523.63;;;24.97;43.03
7335;BME280;3708;42.632;23.378;2022-09-09T06:47:28;94531.91;;;25.06;43.17
7335;BME280;3708;42.632;23.378;2022-09-09T06:49:55;94523.63;;;25.24;42.94
7335;BME280;3708;42.632;23.378;2022-09-09T06:52:22;94525.28;;;25.44;42.48
7335;BME280;3708;42.632;23.378;2022-09-09T06:54:50;94537.53;;;25.15;42.33
7335;BME280;3708;42.632;23.378;2022-09-09T06:57:17;94541.44;;;24.80;42.92
7335;BME280;3708;42.632;23.378;2022-09-09T06:59:45;94548.63;;;24.87;42.65
7335;BME280;3708;42.632;23.378;2022-09-09T07:02:12;94549.59;;;25.00;42.85
7335;BME280;3708;42.632;23.378;2022-09-09T07:04:40;94548.19;;;24.58;43.30
7335;BME280;3708;42.632;23.378;2022-09-09T07:07:06;94547.28;;;25.02;42.94
7335;BME280;3708;42.632;23.378;2022-09-09T07:09:35;94547.19;;;25.09;42.50
7335;BME280;3708;42.632;23.378;2022-09-09T07:12:02;94551.00;;;24.44;43.68
7335;BME280;3708;42.632;23.378;2022-09-09T07:14:31;94545.72;;;24.37;43.89
7335;BME280;3708;42.632;23.378;2022-09-09T07:16:59;94534.56;;;24.79;42.79
7335;BME280;3708;42.632;23.378;2022-09-09T07:19:26;94536.78;;;25.15;42.32
7335;BME280;3708;42.632;23.378;2022-09-09T07:21:54;94538.59;;;25.21;41.93
7335;BME280;3708;42.632;23.378;2022-09-09T07:24:20;94533.56;;;25.53;41.58
7335;BME280;3708;42.632;23.378;2022-09-09T07:26:47;94539.50;;;25.68;41.57
7335;BME280;3708;42.632;23.378;2022-09-09T07:29:14;94532.13;;;25.95;41.72
7335;BME280;3708;42.632;23.378;2022-09-09T07:31:41;94527.06;;;26.24;40.99
7335;BME280;3708;42.632;23.378;2022-09-09T07:34:10;94530.97;;;25.96;41.50
7335;BME280;3708;42.632;23.378;2022-09-09T07:36:39;94519.63;;;26.31;40.02
7335;BME280;3708;42.632;23.378;2022-09-09T07:39:09;94527.16;;;26.60;40.16
7335;BME280;3708;42.632;23.378;2022-09-09T07:41:38;94520.69;;;26.96;39.78
7335;BME280;3708;42.632;23.378;2022-09-09T07:44:07;94526.16;;;27.09;39.14
7335;BME280;3708;42.632;23.378;2022-09-09T07:46:35;94533.38;;;27.32;38.59
7335;BME280;3708;42.632;23.378;2022-09-09T07:49:02;94547.38;;;27.59;38.26
7335;BME280;3708;42.632;23.378;2022-09-09T07:51:32;94540.16;;;27.56;38.05
7335;BME280;3708;42.632;23.378;2022-09-09T07:54:00;94538.91;;;27.60;38.28
7335;BME280;3708;42.632;23.378;2022-09-09T07:56:29;94533.28;;;27.71;37.16
7335;BME280;3708;42.632;23.378;2022-09-09T07:58:57;94529.38;;;27.72;37.28
7335;BME280;3708;42.632;23.378;2022-09-09T08:01:28;94541.25;;;27.74;37.03
7335;BME280;3708;42.632;23.378;2022-09-09T08:03:57;94529.81;;;27.86;37.31
7335;BME280;3708;42.632;23.378;2022-09-09T08:06:27;94532.34;;;28.10;36.27
7335;BME280;3708;42.632;23.378;2022-09-09T08:08:56;94535.78;;;27.94;36.52
7335;BME280;3708;42.632;23.378;2022-09-09T08:11:25;94533.94;;;27.75;36.76
7335;BME280;3708;42.632;23.378;2022-09-09T08:13:53;94538.00;;;27.31;37.72
7335;BME280;3708;42.632;23.378;2022-09-09T08:16:22;94527.13;;;27.70;37.42
7335;BME280;3708;42.632;23.378;2022-09-09T08:18:50;94537.47;;;28.04;37.28
7335;BME280;3708;42.632;23.378;2022-09-09T08:21:19;94537.28;;;27.95;36.55
7335;BME280;3708;42.632;23.378;2022-09-09T08:23:47;94533.06;;;28.26;36.22
7335;BME280;3708;42.632;23.378;2022-09-09T08:26:17;94528.06;;;28.41;36.23
7335;BME280;3708;42.632;23.378;2022-09-09T08:28:44;94531.34;;;28.48;36.05
7335;BME280;3708;42.632;23.378;2022-09-09T08:31:13;94530.56;;;28.48;35.97
7335;BME280;3708;42.632;23.378;2022-09-09T08:33:41;94530.97;;;28.62;34.86
7335;BME280;3708;42.632;23.378;2022-09-09T08:36:13;94533.50;;;28.53;35.33
7335;BME280;3708;42.632;23.378;2022-09-09T08:38:40;94530.81;;;28.82;35.29
7335;BME280;3708;42.632;23.378;2022-09-09T08:44:08;94537.13;;;28.63;35.27
7335;BME280;3708;42.632;23.378;2022-09-09T08:46:44;94532.38;;;28.67;35.51
7335;BME280;3708;42.632;23.378;2022-09-09T08:49:33;94529.59;;;28.71;35.46
7335;BME280;3708;42.632;23.378;2022-09-09T08:52:09;94528.72;;;28.61;34.79
7335;BME280;3708;42.632;23.378;2022-09-09T08:54:41;94521.63;;;28.67;34.44
7335;BME280;3708;42.632;23.378;2022-09-09T08:57:14;94531.22;;;28.52;35.20
7335;BME280;3708;42.632;23.378;2022-09-09T08:59:45;94520.16;;;28.79;34.55
7335;BME280;3708;42.632;23.378;2022-09-09T09:02:15;94519.97;;;28.57;35.04
7335;BME280;3708;42.632;23.378;2022-09-09T09:05:00;94519.09;;;29.01;34.52
7335;BME280;3708;42.632;23.378;2022-09-09T09:07:41;94517.31;;;29.23;33.87
7335;BME280;3708;42.632;23.378;2022-09-09T09:10:18;94514.91;;;29.13;34.34
7335;BME280;3708;42.632;23.378;2022-09-09T09:12:48;94519.69;;;29.47;33.80
7335;BME280;3708;42.632;23.378;2022-09-09T09:15:18;94517.63;;;29.25;34.51
7335;BME280;3708;42.632;23.378;2022-09-09T09:17:47;94519.56;;;29.37;34.36
7335;BME280;3708;42.632;23.378;2022-09-09T09:20:17;94528.38;;;29.00;34.87
7335;BME280;3708;42.632;23.378;2022-09-09T09:22:49;94528.63;;;29.18;34.13
7335;BME280;3708;42.632;23.378;2022-09-09T09:25:19;94517.19;;;29.39;34.37
7335;BME280;3708;42.632;23.378;2022-09-09T09:27:53;94516.31;;;29.68;33.68
7335;BME280;3708;42.632;23.378;2022-09-09T09:30:27;94508.53;;;29.95;33.59
7335;BME280;3708;42.632;23.378;2022-09-09T09:32:59;94517.81;;;29.94;33.39
7335;BME280;3708;42.632;23.378;2022-09-09T09:35:27;94518.94;;;30.18;33.29
7335;BME280;3708;42.632;23.378;2022-09-09T09:37:55;94515.22;;;30.03;32.75
7335;BME280;3708;42.632;23.378;2022-09-09T09:40:22;94519.53;;;30.00;32.79
7335;BME280;3708;42.632;23.378;2022-09-09T09:42:53;94514.16;;;29.88;32.79
7335;BME280;3708;42.632;23.378;2022-09-09T09:45:28;94516.78;;;30.13;33.05
7335;BME280;3708;42.632;23.378;2022-09-09T09:48:01;94507.44;;;30.39;32.69
7335;BME280;3708;42.632;23.378;2022-09-09T09:50:29;94501.72;;;30.37;32.49
7335;BME280;3708;42.632;23.378;2022-09-09T09:52:59;94491.53;;;30.41;32.47
7335;BME280;3708;42.632;23.378;2022-09-09T09:55:28;94489.91;;;30.44;32.57
7335;BME280;3708;42.632;23.378;2022-09-09T09:58:03;94490.38;;;30.64;32.72
7335;BME280;3708;42.632;23.378;2022-09-09T10:00:30;94488.38;;;30.08;33.01
7335;BME280;3708;42.632;23.378;2022-09-09T10:02:59;94485.00;;;29.70;33.96
7335;BME280;3708;42.632;23.378;2022-09-09T10:05:28;94483.59;;;29.91;33.50
7335;BME280;3708;42.632;23.378;2022-09-09T10:08:08;94485.66;;;30.21;33.34
7335;BME280;3708;42.632;23.378;2022-09-09T10:10:56;94489.03;;;30.47;32.81
7335;BME280;3708;42.632;23.378;2022-09-09T10:13:31;94494.72;;;30.27;32.82
7335;BME280;3708;42.632;23.378;2022-09-09T10:16:13;94500.03;;;29.33;34.31
7335;BME280;3708;42.632;23.378;2022-09-09T10:18:57;94499.72;;;29.57;33.98
7335;BME280;3708;42.632;23.378;2022-09-09T10:21:41;94497.47;;;29.42;34.07
7335;BME280;3708;42.632;23.378;2022-09-09T10:27:13;94508.53;;;28.37;36.00
7335;BME280;3708;42.632;23.378;2022-09-09T10:30:02;94499.53;;;28.43;35.64
7335;BME280;3708;42.632;23.378;2022-09-09T10:32:41;94510.16;;;28.34;36.31
7335;BME280;3708;42.632;23.378;2022-09-09T10:35:14;94511.53;;;28.10;36.75
7335;BME280;3708;42.632;23.378;2022-09-09T10:40:58;94504.16;;;27.98;37.00
7335;BME280;3708;42.632;23.378;2022-09-09T10:43:44;94506.34;;;27.39;38.17
7335;BME280;3708;42.632;23.378;2022-09-09T10:46:19;94503.34;;;27.33;38.44
7335;BME280;3708;42.632;23.378;2022-09-09T10:49:05;94506.09;;;27.65;37.82
7335;BME280;3708;42.632;23.378;2022-09-09T10:51:40;94504.16;;;27.66;37.99
7335;BME280;3708;42.632;23.378;2022-09-09T10:54:19;94513.31;;;27.52;38.15
7335;BME280;3708;42.632;23.378;2022-09-09T10:56:52;94503.34;;;27.69;37.67
7335;BME280;3708;42.632;23.378;2022-09-09T10:59:25;94502.16;;;27.54;38.15
7335;BME280;3708;42.632;23.378;2022-09-09T11:01:57;94491.28;;;27.89;37.76
7335;BME280;3708;42.632;23.378;2022-09-09T11:04:30;94503.66;;;27.71;37.65
7335;BME280;3708;42.632;23.378;2022-09-09T11:07:05;94502.56;;;28.01;37.68
7335;BME280;3708;42.632;23.378;2022-09-09T11:09:38;94505.66;;;28.15;36.92
7335;BME280;3708;42.632;23.378;2022-09-09T11:12:12;94515.53;;;28.06;37.27
7335;BME280;3708;42.632;23.378;2022-09-09T11:14:46;94515.53;;;28.06;37.39
7335;BME280;3708;42.632;23.378;2022-09-09T11:17:18;94505.09;;;27.75;37.92
7335;BME280;3708;42.632;23.378;2022-09-09T11:19:47;94507.78;;;27.75;37.71
7335;BME280;3708;42.632;23.378;2022-09-09T11:22:25;94499.53;;;27.82;37.39
7335;BME280;3708;42.632;23.378;2022-09-09T11:24:57;94498.84;;;27.94;37.65
7335;BME280;3708;42.632;23.378;2022-09-09T11:27:28;94503.34;;;28.01;38.02
7335;BME280;3708;42.632;23.378;2022-09-09T11:30:14;94492.69;;;27.30;39.26
7335;BME280;3708;42.632;23.378;2022-09-09T11:36:00;94474.78;;;28.04;37.47
7335;BME280;3708;42.632;23.378;2022-09-09T11:38:34;94464.19;;;28.25;37.33
7335;BME280;3708;42.632;23.378;2022-09-09T11:41:05;94467.03;;;28.34;37.38
7335;BME280;3708;42.632;23.378;2022-09-09T11:43:39;94456.06;;;28.70;36.51
7335;BME280;3708;42.632;23.378;2022-09-09T11:46:08;94458.59;;;29.02;36.06
7335;BME280;3708;42.632;23.378;2022-09-09T11:48:37;94457.84;;;29.27;35.94
7335;BME280;3708;42.632;23.378;2022-09-09T11:51:08;94436.91;;;29.18;35.76
7335;BME280;3708;42.632;23.378;2022-09-09T11:53:47;94428.88;;;29.53;35.62
7335;BME280;3708;42.632;23.378;2022-09-09T11:56:25;94413.84;;;29.77;35.77
7335;BME280;3708;42.632;23.378;2022-09-09T11:58:58;94408.94;;;29.97;35.57
7335;BME280;3708;42.632;23.378;2022-09-09T12:01:34;94406.03;;;30.13;35.60
7335;BME280;3708;42.632;23.378;2022-09-09T12:04:25;94412.88;;;30.05;35.70
7335;BME280;3708;42.632;23.378;2022-09-09T12:06:58;94421.50;;;30.12;35.45
7335;BME280;3708;42.632;23.378;2022-09-09T12:09:33;94434.56;;;30.14;34.74
7335;BME280;3708;42.632;23.378;2022-09-09T12:12:22;94419.72;;;30.31;34.66
7335;BME280;3708;42.632;23.378;2022-09-09T12:15:18;94414.25;;;30.74;34.14
7335;BME280;3708;42.632;23.378;2022-09-09T12:17:47;94414.00;;;30.81;33.80
7335;BME280;3708;42.632;23.378;2022-09-09T12:20:18;94412.00;;;30.95;33.53
7335;BME280;3708;42.632;23.378;2022-09-09T12:23:01;94411.31;;;31.21;33.90
7335;BME280;3708;42.632;23.378;2022-09-09T12:25:39;94409.09;;;31.38;32.79
7335;BME280;3708;42.632;23.378;2022-09-09T12:28:15;94412.63;;;31.47;32.21
7335;BME280;3708;42.632;23.378;2022-09-09T12:30:56;94399.66;;;31.42;32.59
7335;BME280;3708;42.632;23.378;2022-09-09T12:33:23;94392.31;;;31.52;32.60
7335;BME280;3708;42.632;23.378;2022-09-09T12:35:54;94392.75;;;31.41;33.25
7335;BME280;3708;42.632;23.378;2022-09-09T12:38:29;94385.28;;;31.64;32.44
7335;BME280;3708;42.632;23.378;2022-09-09T12:40:59;94392.34;;;31.70;32.07
7335;BME280;3708;42.632;23.378;2022-09-09T12:43:26;94382.41;;;31.67;31.93
7335;BME280;3708;42.632;23.378;2022-09-09T12:45:56;94376.25;;;31.67;32.13
7335;BME280;3708;42.632;23.378;2022-09-09T12:48:31;94384.13;;;31.25;33.38
7335;BME280;3708;42.632;23.378;2022-09-09T12:50:59;94392.56;;;31.27;33.37
7335;BME280;3708;42.632;23.378;2022-09-09T12:53:30;94394.25;;;31.42;33.70
7335;BME280;3708;42.632;23.378;2022-09-09T12:56:01;94390.47;;;31.40;33.16
7335;BME280;3708;42.632;23.378;2022-09-09T12:58:30;94380.47;;;31.19;33.32
7335;BME280;3708;42.632;23.378;2022-09-09T13:00:59;94379.88;;;31.64;33.35
7335;BME280;3708;42.632;23.378;2022-09-09T13:03:26;94379.44;;;32.10;32.03
7335;BME280;3708;42.632;23.378;2022-09-09T13:06:12;94365.88;;;32.19;32.09
7335;BME280;3708;42.632;23.378;2022-09-09T13:08:41;94368.59;;;32.01;32.54
7335;BME280;3708;42.632;23.378;2022-09-09T13:11:13;94361.22;;;32.11;32.15
7335;BME280;3708;42.632;23.378;2022-09-09T13:13:42;94362.56;;;32.15;31.92
7335;BME280;3708;42.632;23.378;2022-09-09T13:16:20;94361.78;;;31.88;31.90
7335;BME280;3708;42.632;23.378;2022-09-09T13:18:48;94351.88;;;32.12;31.43
7335;BME280;3708;42.632;23.378;2022-09-09T13:21:16;94356.22;;;31.64;32.89
7335;BME280;3708;42.632;23.378;2022-09-09T13:23:49;94355.31;;;31.58;32.74
7335;BME280;3708;42.632;23.378;2022-09-09T13:26:23;94354.88;;;31.59;33.32
7335;BME280;3708;42.632;23.378;2022-09-09T13:28:50;94346.88;;;31.83;32.20
7335;BME280;3708;42.632;23.378;2022-09-09T13:31:21;94339.69;;;32.07;32.38
7335;BME280;3708;42.632;23.378;2022-09-09T13:33:48;94344.91;;;32.29;32.20
7335;BME280;3708;42.632;23.378;2022-09-09T13:36:15;94346.25;;;32.52;31.86
7335;BME280;3708;42.632;23.378;2022-09-09T13:38:55;94333.56;;;32.58;31.45
7335;BME280;3708;42.632;23.378;2022-09-09T13:41:34;94335.28;;;32.79;31.46
7335;BME280;3708;42.632;23.378;2022-09-09T13:44:02;94343.09;;;32.86;31.24